Time;durP1;ratioP1;P1;durP2;ratioP2;P2;SDS_P1;SDS_P2;PMS_P1;PMS_P2;Temp;Humidity;BMP_temperature;BMP_pressure;BME280_temperature;BME280_humidity;BME280_pressure;Samples;Min_cycle;Max_cycle;Signal;HPM_P1;HPM_P2
2022/08/30 00:03:00;;;;;;;12.55;6.55;;;;;;;19.24;71.49;99241.69;4805582;29;20073;-79
2022/08/30 00:05:28;;;;;;;12.43;6.90;;;;;;;19.25;71.60;99238.09;4786281;29;20054;-78
2022/08/30 00:07:54;;;;;;;9.88;6.50;;;;;;;19.24;71.58;99238.16;4805847;29;20058;-79
2022/08/30 00:10:22;;;;;;;11.70;7.15;;;;;;;19.27;71.57;99246.78;4807616;29;20058;-79
2022/08/30 00:12:48;;;;;;;13.55;7.18;;;;;;;19.22;71.60;99242.66;4787642;29;20039;-78
2022/08/30 00:15:15;;;;;;;12.88;7.00;;;;;;;19.26;71.71;99247.72;4806108;29;20050;-79
2022/08/30 00:17:42;;;;;;;15.85;6.60;;;;;;;19.24;71.56;99244.31;4807929;29;20055;-79
2022/08/30 00:20:10;;;;;;;15.43;7.20;;;;;;;19.16;71.73;99230.66;4787106;29;20142;-80
2022/08/30 00:22:37;;;;;;;14.55;7.35;;;;;;;19.16;71.81;99235.94;4781966;29;20047;-78
2022/08/30 00:25:03;;;;;;;16.42;7.88;;;;;;;19.14;71.85;99235.19;4804370;29;20051;-78
2022/08/30 00:27:30;;;;;;;15.43;7.18;;;;;;;19.10;72.05;99236.25;4799003;29;20123;-77
2022/08/30 00:29:56;;;;;;;13.15;6.68;;;;;;;19.12;71.99;99247.59;4792204;29;20067;-77
2022/08/30 00:32:23;;;;;;;14.32;6.93;;;;;;;19.12;72.06;99237.03;4813318;29;20043;-78
2022/08/30 00:34:52;;;;;;;13.95;7.03;;;;;;;19.10;72.09;99229.22;4770891;29;20047;-80
2022/08/30 00:37:19;;;;;;;13.32;7.50;;;;;;;19.10;72.10;99238.91;4803005;29;20051;-81
2022/08/30 00:39:45;;;;;;;12.32;6.88;;;;;;;19.04;72.05;99226.06;4782214;29;20039;-79
2022/08/30 00:42:12;;;;;;;12.18;7.30;;;;;;;19.02;72.17;99236.69;4787393;29;20096;-82
2022/08/30 00:44:41;;;;;;;15.60;7.40;;;;;;;18.97;72.13;99238.72;4804436;29;20039;-79
2022/08/30 00:47:08;;;;;;;14.57;7.65;;;;;;;18.92;72.35;99230.16;4801022;29;20076;-78
2022/08/30 00:49:36;;;;;;;15.82;7.63;;;;;;;18.89;72.51;99238.22;4796752;29;20043;-79
2022/08/30 00:52:04;;;;;;;16.50;7.72;;;;;;;18.81;72.52;99228.94;4793691;29;20047;-78
2022/08/30 00:54:32;;;;;;;14.02;6.82;;;;;;;18.68;72.85;99222.59;4797227;29;20084;-79
2022/08/30 00:56:59;;;;;;;14.25;7.30;;;;;;;18.72;72.91;99218.03;4788187;29;20472;-80
2022/08/30 00:59:27;;;;;;;13.82;7.60;;;;;;;18.68;72.83;99217.34;4809822;29;20066;-80
2022/08/30 01:01:54;;;;;;;15.88;8.02;;;;;;;18.75;73.08;99220.50;4803450;29;20035;-78
2022/08/30 01:04:23;;;;;;;12.68;7.18;;;;;;;18.73;73.14;99209.19;4804156;29;20039;-78
2022/08/30 01:06:50;;;;;;;14.75;7.65;;;;;;;18.78;73.17;99207.16;4798093;29;20051;-77
2022/08/30 01:09:17;;;;;;;13.82;8.02;;;;;;;18.86;73.29;99214.66;4801496;29;20054;-80
2022/08/30 01:11:45;;;;;;;13.00;7.80;;;;;;;18.86;73.12;99225.22;4814713;29;20047;-79
2022/08/30 01:14:13;;;;;;;13.73;7.55;;;;;;;18.85;73.46;99218.22;4806076;29;20513;-79
2022/08/30 01:16:42;;;;;;;11.95;7.38;;;;;;;18.89;73.53;99220.63;4799942;29;20038;-78
2022/08/30 01:19:35;;;;;;;13.50;7.65;;;;;;;18.80;73.42;99200.03;4808735;29;20035;-81
2022/08/30 01:22:18;;;;;;;11.68;7.50;;;;;;;18.87;73.52;99208.47;4805717;29;20055;-76
2022/08/30 01:24:47;;;;;;;15.07;8.00;;;;;;;18.86;73.58;99215.53;4812213;29;20114;-77
2022/08/30 01:27:17;;;;;;;13.90;8.20;;;;;;;18.81;73.70;99201.75;4788550;29;20055;-78
2022/08/30 01:29:44;;;;;;;13.85;7.78;;;;;;;18.79;73.58;99193.06;4799556;29;20047;-78
2022/08/30 01:32:19;;;;;;;12.98;7.43;;;;;;;18.79;73.90;99200.97;4801579;29;20051;-78
2022/08/30 01:34:49;;;;;;;15.18;7.55;;;;;;;18.79;74.00;99198.34;4800220;29;20054;-79
2022/08/30 01:37:26;;;;;;;14.75;8.02;;;;;;;18.82;74.08;99199.00;4805071;29;20523;-78
2022/08/30 01:39:53;;;;;;;10.73;7.22;;;;;;;18.91;74.01;99208.22;4805940;29;21163;-80
2022/08/30 01:42:19;;;;;;;14.13;8.63;;;;;;;18.93;74.00;99202.88;4803762;29;20046;-80
2022/08/30 01:44:45;;;;;;;15.75;8.25;;;;;;;18.95;74.07;99206.31;4799563;29;20079;-78
2022/08/30 01:47:13;;;;;;;14.20;7.45;;;;;;;18.96;74.20;99190.41;4775946;29;20087;-79
2022/08/30 01:49:41;;;;;;;14.07;7.72;;;;;;;18.98;74.33;99202.66;4797858;29;20047;-77
2022/08/30 01:52:07;;;;;;;15.88;8.27;;;;;;;18.96;74.28;99202.75;4801891;29;20539;-77
2022/08/30 01:54:36;;;;;;;17.23;8.13;;;;;;;19.01;74.28;99200.69;4802270;29;20042;-79
2022/08/30 01:57:09;;;;;;;20.05;8.80;;;;;;;19.01;74.08;99194.59;4800687;29;20059;-79
2022/08/30 01:59:35;;;;;;;15.32;8.43;;;;;;;19.00;74.12;99198.16;4784269;29;20055;-79
2022/08/30 02:02:03;;;;;;;13.65;8.05;;;;;;;19.03;74.19;99201.47;4806001;29;20051;-78
2022/08/30 02:04:29;;;;;;;13.50;8.00;;;;;;;19.04;74.26;99207.63;4798714;29;20047;-77
2022/08/30 02:06:55;;;;;;;15.15;8.68;;;;;;;19.00;74.39;99211.34;4804605;29;20039;-77
2022/08/30 02:09:21;;;;;;;13.40;7.32;;;;;;;19.05;74.33;99219.88;4803972;29;20065;-78
2022/08/30 02:11:47;;;;;;;22.13;8.73;;;;;;;18.94;74.16;99205.41;4798440;29;20039;-78
2022/08/30 02:14:14;;;;;;;19.30;8.63;;;;;;;18.95;74.37;99215.06;4815403;29;20075;-79
2022/08/30 02:16:40;;;;;;;17.65;8.45;;;;;;;18.80;74.31;99192.97;4804555;29;20047;-79
2022/08/30 02:19:07;;;;;;;14.48;8.75;;;;;;;18.88;74.55;99215.44;4800268;29;20070;-78
2022/08/30 02:21:33;;;;;;;18.45;8.98;;;;;;;18.82;74.46;99212.19;4780390;29;20062;-77
2022/08/30 02:23:59;;;;;;;19.25;8.70;;;;;;;18.78;74.49;99215.06;4802917;29;20050;-78
2022/08/30 02:26:25;;;;;;;15.93;8.60;;;;;;;18.80;74.80;99218.47;4802519;29;20065;-78
2022/08/30 02:28:53;;;;;;;17.42;8.43;;;;;;;18.76;74.88;99203.75;4783868;29;20051;-80
2022/08/30 02:31:21;;;;;;;15.68;8.70;;;;;;;18.63;74.61;99193.00;4819275;29;20563;-77
2022/08/30 02:33:50;;;;;;;11.57;7.82;;;;;;;18.64;74.91;99214.03;4801564;29;20057;-79
2022/08/30 02:36:17;;;;;;;20.63;9.32;;;;;;;18.66;75.12;99238.47;4806402;29;20807;-78
2022/08/30 02:38:44;;;;;;;17.45;9.00;;;;;;;18.64;75.00;99226.31;4781177;29;20054;-79
2022/08/30 02:41:09;;;;;;;17.67;8.93;;;;;;;18.56;75.13;99224.09;4790285;29;20043;-79
2022/08/30 02:43:35;;;;;;;14.35;9.25;;;;;;;18.48;75.24;99221.84;4783788;29;20053;-80
2022/08/30 02:46:01;;;;;;;13.40;9.05;;;;;;;18.46;75.33;99222.84;4793702;29;20047;-79
2022/08/30 02:48:27;;;;;;;13.20;8.93;;;;;;;18.42;75.25;99223.94;4780071;29;20068;-78
2022/08/30 02:50:53;;;;;;;18.67;9.52;;;;;;;18.46;75.34;99236.00;4801368;29;20077;-79
2022/08/30 02:53:20;;;;;;;18.10;8.65;;;;;;;18.36;75.36;99220.69;4801114;29;20051;-77
2022/08/30 02:55:48;;;;;;;16.08;9.23;;;;;;;18.25;75.72;99204.56;4785278;29;20051;-77
2022/08/30 02:58:14;;;;;;;20.83;9.15;;;;;;;18.32;75.67;99215.63;4787532;30;20096;-79
2022/08/30 03:00:41;;;;;;;17.88;9.88;;;;;;;18.28;75.75;99212.31;4814286;29;20057;-79
2022/08/30 03:03:07;;;;;;;18.25;9.05;;;;;;;18.39;75.90;99237.28;4821284;29;20043;-78
2022/08/30 03:05:34;;;;;;;17.30;8.88;;;;;;;18.39;75.98;99232.84;4782584;29;20047;-78
2022/08/30 03:08:00;;;;;;;18.40;9.35;;;;;;;18.38;75.99;99231.13;4812338;29;20043;-77
2022/08/30 03:10:27;;;;;;;17.05;9.50;;;;;;;18.38;76.03;99231.13;4836708;29;20053;-79
2022/08/30 03:12:54;;;;;;;15.35;9.40;;;;;;;18.36;76.18;99223.31;4806739;29;20055;-78
2022/08/30 03:15:24;;;;;;;17.80;9.68;;;;;;;18.40;76.01;99224.00;4815525;29;20155;-78
2022/08/30 03:17:51;;;;;;;26.55;17.98;;;;;;;18.50;76.18;99235.81;4814876;29;20039;-83
2022/08/30 03:20:19;;;;;;;22.52;15.32;;;;;;;18.59;76.22;99241.50;4808362;29;20133;-79
2022/08/30 03:22:45;;;;;;;20.60;11.88;;;;;;;18.61;76.28;99227.34;4804254;29;20039;-83
2022/08/30 03:25:12;;;;;;;14.95;9.00;;;;;;;18.73;76.14;99225.00;4805403;29;20048;-79
2022/08/30 03:27:38;;;;;;;14.30;8.75;;;;;;;18.75;76.07;99212.59;4799504;29;20101;-77
2022/08/30 03:30:06;;;;;;;14.48;8.95;;;;;;;18.79;75.97;99214.16;4805266;29;20027;-78
2022/08/30 03:32:32;;;;;;;15.45;8.75;;;;;;;18.93;75.82;99216.06;4810560;29;20039;-77
2022/08/30 03:34:58;;;;;;;21.73;9.73;;;;;;;19.06;75.76;99226.84;4820244;29;20057;-78
2022/08/30 03:37:26;;;;;;;17.65;8.85;;;;;;;19.03;75.61;99212.03;4806039;29;20043;-79
2022/08/30 03:39:54;;;;;;;14.07;8.05;;;;;;;19.21;75.40;99228.66;4806475;29;20118;-78
2022/08/30 03:42:20;;;;;;;13.98;8.20;;;;;;;19.28;75.32;99226.53;4803732;29;20067;-77
2022/08/30 03:44:46;;;;;;;13.82;8.10;;;;;;;19.26;75.36;99218.72;4784225;29;20123;-78
2022/08/30 03:47:12;;;;;;;15.05;8.85;;;;;;;19.28;74.95;99215.97;4812200;29;20049;-78
2022/08/30 03:49:42;;;;;;;13.80;7.80;;;;;;;19.46;75.04;99229.09;4805625;29;20039;-82
2022/08/30 03:52:10;;;;;;;17.17;8.35;;;;;;;19.25;74.74;99174.81;4806991;29;20050;-79
2022/08/30 03:54:37;;;;;;;11.82;7.60;;;;;;;19.60;74.78;99210.72;4808152;29;20039;-79
2022/08/30 03:57:03;;;;;;;17.65;8.38;;;;;;;19.67;74.38;99221.78;4801185;29;20058;-77
2022/08/30 03:59:29;;;;;;;16.88;8.30;;;;;;;19.66;74.09;99207.72;4790410;29;20070;-75
2022/08/30 04:01:55;;;;;;;17.58;8.77;;;;;;;19.84;74.17;99234.88;4786659;29;20459;-75
2022/08/30 04:04:21;;;;;;;17.17;8.80;;;;;;;19.83;73.76;99219.97;4799443;29;20055;-75
2022/08/30 04:06:48;;;;;;;16.55;8.55;;;;;;;19.88;73.66;99213.63;4795366;29;20481;-76
2022/08/30 04:09:14;;;;;;;14.07;8.52;;;;;;;19.96;73.49;99216.69;4801781;29;20043;-76
2022/08/30 04:11:41;;;;;;;19.83;7.95;;;;;;;20.10;73.24;99226.44;4803639;29;20039;-77
2022/08/30 04:14:07;;;;;;;16.02;8.52;;;;;;;20.19;72.94;99225.09;4806185;29;20049;-78
2022/08/30 04:16:33;;;;;;;19.50;8.77;;;;;;;20.30;72.64;99233.22;4807465;29;20058;-76
2022/08/30 04:18:59;;;;;;;18.77;8.40;;;;;;;20.41;72.73;99228.13;4801912;29;20114;-77
2022/08/30 04:21:26;;;;;;;15.85;7.53;;;;;;;20.50;72.14;99225.91;4804567;29;20516;-77
2022/08/30 04:23:52;;;;;;;19.38;7.80;;;;;;;20.66;72.13;99237.25;4798402;29;20129;-76
2022/08/30 04:26:18;;;;;;;16.60;8.30;;;;;;;20.82;72.03;99231.09;4800807;29;20066;-76
2022/08/30 04:28:44;;;;;;;17.88;7.75;;;;;;;20.95;71.14;99226.75;4765574;29;20432;-76
2022/08/30 04:31:15;;;;;;;17.55;7.97;;;;;;;21.15;70.99;99238.75;4806167;29;20043;-78
2022/08/30 04:33:41;;;;;;;15.10;7.67;;;;;;;21.16;70.11;99229.03;4810776;29;20046;-78
2022/08/30 04:36:09;;;;;;;18.58;8.18;;;;;;;21.30;70.05;99231.66;4804420;29;20045;-77
2022/08/30 04:38:38;;;;;;;20.58;8.90;;;;;;;21.50;69.94;99237.50;4801610;29;20114;-77
2022/08/30 04:41:15;;;;;;;17.23;8.35;;;;;;;21.74;68.98;99234.25;4801393;29;20404;-78
2022/08/30 04:43:42;;;;;;;17.08;8.10;;;;;;;21.88;68.78;99231.56;4804665;29;20047;-78
2022/08/30 04:46:09;;;;;;;23.08;9.43;;;;;;;22.12;68.27;99221.16;4803548;29;20170;-77
2022/08/30 04:48:36;;;;;;;18.63;8.52;;;;;;;22.34;67.49;99225.03;4802846;29;20065;-77
2022/08/30 04:51:08;;;;;;;19.77;8.73;;;;;;;22.52;67.24;99228.28;4806250;29;20098;-76
2022/08/30 04:53:35;;;;;;;18.60;8.38;;;;;;;22.65;66.08;99214.16;4800544;29;20750;-78
2022/08/30 04:56:11;;;;;;;17.38;9.27;;;;;;;22.83;65.77;99212.94;4803326;29;20049;-76
2022/08/30 04:58:37;;;;;;;16.38;8.23;;;;;;;22.91;65.36;99200.91;4795169;29;20066;-78
2022/08/30 05:01:03;;;;;;;27.65;9.57;;;;;;;23.16;64.99;99208.03;4800153;29;20508;-78
2022/08/30 05:03:30;;;;;;;15.82;8.60;;;;;;;23.30;64.26;99204.38;4779489;29;20055;-79
2022/08/30 05:05:56;;;;;;;20.95;8.80;;;;;;;23.41;63.41;99200.97;4803065;29;20027;-77
2022/08/30 05:08:22;;;;;;;20.02;8.77;;;;;;;23.79;63.80;99207.09;4804357;29;20082;-78
2022/08/30 05:10:52;;;;;;;15.82;8.88;;;;;;;24.23;62.24;99223.41;4793658;29;20095;-79
2022/08/30 05:13:20;;;;;;;13.73;7.88;;;;;;;25.15;61.79;99219.97;4801929;29;20054;-79
2022/08/30 05:15:46;;;;;;;18.25;7.45;;;;;;;26.71;60.75;99217.03;4801201;29;20054;-77
2022/08/30 05:18:14;;;;;;;15.18;7.93;;;;;;;28.06;58.41;99206.09;4801126;29;20058;-76
2022/08/30 05:20:41;;;;;;;16.13;8.38;;;;;;;28.90;54.76;99210.94;4798985;29;20054;-78
2022/08/30 05:23:07;;;;;;;18.95;9.10;;;;;;;29.44;52.67;99208.47;4804484;29;20046;-78
2022/08/30 05:25:37;;;;;;;14.75;7.90;;;;;;;30.34;50.03;99208.50;4807808;29;20124;-78
2022/08/30 05:28:04;;;;;;;15.25;7.22;;;;;;;31.30;48.86;99208.63;4793879;29;20466;-79
2022/08/30 05:30:35;;;;;;;11.85;7.45;;;;;;;32.28;45.22;99200.94;4782834;29;20555;-79
2022/08/30 05:33:01;;;;;;;;;;;;;;;32.52;44.08;99201.91;4799398;29;20047;-79
2022/08/30 05:35:31;;;;;;;15.13;8.13;;;;;;;32.49;43.16;99204.94;4776850;29;19921;-78
2022/08/30 05:37:57;;;;;;;15.60;8.68;;;;;;;32.17;42.22;99199.41;4802819;29;20052;-77
2022/08/30 05:40:23;;;;;;;13.80;7.93;;;;;;;32.91;41.62;99203.88;4802771;29;20057;-78
2022/08/30 05:42:49;;;;;;;17.15;8.15;;;;;;;33.48;40.30;99204.66;4793241;29;20094;-78
2022/08/30 05:45:15;;;;;;;15.32;7.78;;;;;;;34.36;38.57;99197.13;4797753;29;20118;-77
2022/08/30 05:47:42;;;;;;;13.50;8.38;;;;;;;35.26;36.40;99186.38;4795221;29;20051;-78
2022/08/30 05:50:09;;;;;;;16.27;8.80;;;;;;;36.20;35.48;99202.78;4802691;29;20057;-78
2022/08/30 05:52:37;;;;;;;12.32;8.20;;;;;;;36.72;33.84;99210.69;4792299;29;20138;-78
2022/08/30 05:55:07;;;;;;;14.10;8.48;;;;;;;37.17;32.43;99210.31;4785533;29;20046;-79
2022/08/30 05:57:35;;;;;;;14.82;8.40;;;;;;;37.33;31.58;99211.84;4800774;29;20078;-79
2022/08/30 06:00:05;;;;;;;12.90;8.32;;;;;;;36.56;32.07;99215.34;4811998;29;20050;-79
2022/08/30 06:02:40;;;;;;;18.10;8.20;;;;;;;36.32;31.69;99214.72;4801527;29;20098;-76
2022/08/30 06:05:07;;;;;;;16.17;9.13;;;;;;;35.54;32.72;99220.81;4805992;29;20046;-76
2022/08/30 06:07:34;;;;;;;16.77;8.90;;;;;;;34.77;32.74;99211.25;4780376;29;20051;-78
2022/08/30 06:10:00;;;;;;;17.38;9.15;;;;;;;33.28;34.82;99206.94;4814143;29;20082;-77
2022/08/30 06:12:29;;;;;;;15.25;8.63;;;;;;;32.54;35.44;99186.44;4799580;29;20053;-78
2022/08/30 06:14:55;;;;;;;17.95;8.63;;;;;;;33.52;35.40;99219.47;4786594;29;20043;-77
2022/08/30 06:17:21;;;;;;;17.80;9.52;;;;;;;34.15;34.23;99223.97;4791980;29;20066;-78
2022/08/30 06:19:47;;;;;;;12.30;8.15;;;;;;;34.67;34.01;99215.06;4804173;29;20072;-78
2022/08/30 06:22:15;;;;;;;13.30;8.52;;;;;;;35.10;33.02;99216.31;4785870;29;20103;-78
2022/08/30 06:24:41;;;;;;;18.08;9.13;;;;;;;35.12;32.51;99225.91;4794192;29;20043;-78
2022/08/30 06:27:09;;;;;;;17.35;8.95;;;;;;;35.40;33.00;99219.81;4798068;29;20099;-79
2022/08/30 06:29:35;;;;;;;13.52;8.35;;;;;;;36.59;31.51;99217.69;4799754;29;20068;-76
2022/08/30 06:32:02;;;;;;;17.63;9.30;;;;;;;38.05;30.21;99220.44;4800462;29;20062;-80
2022/08/30 06:34:28;;;;;;;14.27;8.20;;;;;;;38.24;28.97;99224.19;4803501;29;20039;-78
2022/08/30 06:36:56;;;;;;;15.15;8.15;;;;;;;38.59;28.54;99233.19;4776511;29;20088;-80
2022/08/30 06:39:22;;;;;;;14.80;8.63;;;;;;;39.73;27.32;99219.22;4808069;29;20058;-77
2022/08/30 06:41:48;;;;;;;18.80;8.45;;;;;;;40.61;26.43;99231.09;4781131;29;20143;-78
2022/08/30 06:44:26;;;;;;;11.32;8.60;;;;;;;40.94;25.54;99216.34;4798533;29;20165;-78
2022/08/30 06:46:52;;;;;;;22.08;10.05;;;;;;;40.85;24.46;99208.69;4794744;29;20050;-77
2022/08/30 06:49:19;;;;;;;15.27;9.40;;;;;;;41.20;24.74;99216.25;4805034;29;20031;-77
2022/08/30 06:51:46;;;;;;;15.98;9.93;;;;;;;40.15;24.82;99213.28;4826553;29;20043;-75
2022/08/30 06:54:12;;;;;;;18.85;9.65;;;;;;;39.03;26.17;99223.50;4800898;29;20424;-77
2022/08/30 06:56:39;;;;;;;14.48;9.13;;;;;;;38.58;26.35;99226.91;4790292;29;20066;-77
2022/08/30 06:59:09;;;;;;;12.02;8.82;;;;;;;39.09;26.52;99210.91;4812261;29;20082;-78
2022/08/30 07:01:35;;;;;;;17.50;8.80;;;;;;;40.26;25.18;99220.75;4815846;29;20077;-76
2022/08/30 07:04:01;;;;;;;14.30;8.88;;;;;;;40.94;24.37;99220.94;4795164;29;20050;-77
2022/08/30 07:06:28;;;;;;;13.68;8.35;;;;;;;41.30;23.23;99227.47;4784028;29;20043;-76
2022/08/30 07:08:54;;;;;;;15.57;9.00;;;;;;;40.66;23.65;99225.84;4795074;29;20098;-79
2022/08/30 07:11:33;;;;;;;18.17;8.60;;;;;;;41.13;23.29;99196.44;4809473;29;20046;-77
2022/08/30 07:14:00;;;;;;;12.30;8.50;;;;;;;41.59;23.14;99221.44;4793927;29;20135;-76
2022/08/30 07:16:27;;;;;;;16.60;9.20;;;;;;;41.09;23.43;99209.69;4793880;29;20161;-75
2022/08/30 07:18:57;;;;;;;15.32;9.40;;;;;;;41.66;22.64;99228.47;4782188;29;21270;-77
2022/08/30 07:21:30;;;;;;;16.40;8.30;;;;;;;42.06;22.40;99218.88;4807691;29;20031;-79
2022/08/30 07:24:00;;;;;;;15.30;8.93;;;;;;;42.53;22.23;99220.00;4809069;29;20362;-81
2022/08/30 07:26:41;;;;;;;9.30;7.88;;;;;;;43.02;21.52;99225.19;4809705;29;20030;-80
2022/08/30 07:31:55;;;;;;;16.30;9.57;;;;;;;42.67;21.01;99193.25;4792407;29;20074;-76
2022/08/30 07:34:21;;;;;;;12.88;8.60;;;;;;;42.08;21.71;99218.63;4794052;29;20054;-78
2022/08/30 07:36:48;;;;;;;13.63;9.25;;;;;;;42.11;21.36;99215.44;4804482;29;20167;-77
2022/08/30 07:39:14;;;;;;;12.13;8.65;;;;;;;43.43;20.69;99217.81;4803291;29;20047;-78
2022/08/30 07:41:43;;;;;;;20.13;9.93;;;;;;;44.32;19.75;99214.72;4797761;29;20065;-78
2022/08/30 07:44:09;;;;;;;15.50;9.00;;;;;;;44.35;19.53;99217.78;4805638;29;20422;-76
2022/08/30 07:46:37;;;;;;;15.23;9.05;;;;;;;43.77;19.59;99230.78;4779456;30;20108;-79
2022/08/30 07:49:08;;;;;;;15.07;8.70;;;;;;;43.67;19.89;99215.00;4807539;29;20163;-77
2022/08/30 07:51:34;;;;;;;13.48;9.55;;;;;;;43.98;19.30;99199.09;4804785;29;20126;-77
2022/08/30 07:54:06;;;;;;;13.40;9.35;;;;;;;43.72;19.54;99219.72;4803001;29;20063;-77
2022/08/30 07:56:32;;;;;;;14.35;8.82;;;;;;;42.07;20.75;99211.50;4791443;29;20050;-76
2022/08/30 07:59:00;;;;;;;17.08;9.07;;;;;;;40.84;22.00;99212.47;4815756;29;20069;-77
2022/08/30 08:01:26;;;;;;;15.25;9.27;;;;;;;40.25;22.51;99221.00;4783726;29;20062;-77
2022/08/30 08:03:53;;;;;;;15.35;9.48;;;;;;;39.30;23.74;99204.38;4803151;29;20047;-77
2022/08/30 08:06:22;;;;;;;17.15;9.73;;;;;;;38.50;24.27;99227.97;4799869;29;20054;-75
2022/08/30 08:08:49;;;;;;;19.42;10.35;;;;;;;37.37;25.26;99226.69;4809071;29;20062;-76
2022/08/30 08:11:19;;;;;;;13.93;9.93;;;;;;;36.62;26.42;99225.41;4815529;29;20042;-77
2022/08/30 08:13:47;;;;;;;15.95;9.90;;;;;;;36.64;26.91;99233.31;4808506;29;20043;-76
2022/08/30 08:16:13;;;;;;;17.00;10.07;;;;;;;36.45;27.63;99230.28;4801339;29;20043;-77
2022/08/30 08:18:39;;;;;;;17.45;10.27;;;;;;;36.12;27.77;99219.16;4791836;29;20057;-75
2022/08/30 08:21:08;;;;;;;11.93;9.63;;;;;;;35.69;28.20;99223.50;4818939;29;20134;-75
2022/08/30 08:23:34;;;;;;;13.95;10.30;;;;;;;35.41;28.38;99224.22;4806200;29;20047;-77
2022/08/30 08:26:02;;;;;;;16.67;10.45;;;;;;;34.83;29.17;99238.38;4779128;29;20054;-75
2022/08/30 08:28:28;;;;;;;15.35;9.75;;;;;;;34.56;30.15;99225.47;4809994;29;20530;-75
2022/08/30 08:30:54;;;;;;;13.35;10.15;;;;;;;34.73;29.63;99234.25;4810738;29;20045;-77
2022/08/30 08:33:23;;;;;;;16.23;9.93;;;;;;;35.54;28.89;99228.94;4803012;29;20295;-77
2022/08/30 08:35:49;;;;;;;15.60;10.00;;;;;;;35.80;28.36;99214.03;4795428;29;20043;-77
2022/08/30 08:38:15;;;;;;;17.92;10.02;;;;;;;36.60;27.92;99216.66;4808417;29;20079;-78
2022/08/30 08:41:05;;;;;;;15.50;10.00;;;;;;;37.06;27.12;99225.28;4798569;29;20039;-78
2022/08/30 08:43:36;;;;;;;15.20;10.75;;;;;;;36.90;27.70;99227.25;4819874;29;20053;-77
2022/08/30 08:46:11;;;;;;;15.40;10.27;;;;;;;37.29;27.14;99230.41;4803506;29;20073;-76
2022/08/30 08:48:37;;;;;;;14.73;10.27;;;;;;;37.98;26.30;99223.13;4792928;29;20046;-77
2022/08/30 08:53:59;;;;;;;13.73;10.20;;;;;;;40.92;23.65;99204.81;4795343;29;20076;-76
2022/08/30 08:56:26;;;;;;;17.67;10.63;;;;;;;41.99;22.62;99213.53;4798451;29;20057;-78
2022/08/30 08:58:56;;;;;;;17.00;11.30;;;;;;;42.33;21.40;99198.44;4794069;29;20211;-80
2022/08/30 09:01:28;;;;;;;19.00;11.60;;;;;;;42.37;20.82;99213.31;4780083;29;20043;-78
2022/08/30 09:03:57;;;;;;;17.73;10.98;;;;;;;42.38;21.33;99224.03;4792116;29;20081;-76
2022/08/30 09:06:44;;;;;;;19.20;12.30;;;;;;;42.23;20.79;99224.47;4781692;30;20534;-79
2022/08/30 09:09:12;;;;;;;25.30;12.38;;;;;;;42.05;20.88;99227.28;4783899;29;20054;-77
2022/08/30 09:11:41;;;;;;;17.33;11.88;;;;;;;42.28;21.00;99216.38;4812720;29;20043;-78
2022/08/30 09:14:18;;;;;;;17.70;12.07;;;;;;;42.60;20.75;99212.47;4771889;29;20055;-77
2022/08/30 09:16:59;;;;;;;20.20;13.35;;;;;;;42.96;20.11;99226.13;4794995;29;20539;-78
2022/08/30 09:19:44;;;;;;;20.35;12.90;;;;;;;43.69;19.64;99222.97;4783393;29;20047;-80
2022/08/30 09:22:38;;;;;;;17.70;12.30;;;;;;;44.63;18.85;99199.56;4804457;29;20555;-79
2022/08/30 09:25:13;;;;;;;20.80;14.07;;;;;;;44.92;18.29;99221.34;4805370;29;20110;-79
2022/08/30 09:27:41;;;;;;;21.35;13.77;;;;;;;44.55;17.78;99226.59;4797272;29;20064;-77
2022/08/30 09:30:19;;;;;;;17.05;12.95;;;;;;;44.52;18.38;99205.97;4800819;29;20051;-78
2022/08/30 09:32:50;;;;;;;18.83;12.80;;;;;;;45.19;17.82;99228.00;4802122;29;20047;-80
2022/08/30 09:35:20;;;;;;;19.75;13.73;;;;;;;45.67;17.20;99220.03;4801124;29;20058;-78
2022/08/30 09:37:55;;;;;;;21.00;14.52;;;;;;;45.22;17.46;99222.81;4804199;29;20043;-81
2022/08/30 09:40:32;;;;;;;16.70;13.70;;;;;;;44.86;17.31;99222.38;4794230;29;20134;-81
2022/08/30 09:43:20;;;;;;;17.20;13.15;;;;;;;44.13;17.73;99212.25;4799294;29;20798;-79
2022/08/30 09:45:59;;;;;;;22.40;13.77;;;;;;;44.29;17.85;99220.69;4764646;30;20051;-79
2022/08/30 09:48:25;;;;;;;18.60;12.63;;;;;;;44.64;17.71;99220.41;4794830;29;20322;-81
2022/08/30 09:51:10;;;;;;;17.98;13.38;;;;;;;45.34;17.22;99221.88;4804223;29;20039;-79
2022/08/30 09:53:52;;;;;;;17.67;12.90;;;;;;;45.18;17.12;99223.59;4795900;29;20075;-78
2022/08/30 09:56:39;;;;;;;18.10;13.48;;;;;;;45.20;16.52;99224.97;4802008;29;20508;-77
2022/08/30 09:59:28;;;;;;;14.70;12.98;;;;;;;45.26;16.45;99225.88;4801227;29;20086;-78
2022/08/30 10:02:05;;;;;;;16.77;12.93;;;;;;;45.56;16.27;99217.19;4809591;29;20066;-77
2022/08/30 10:04:49;;;;;;;16.95;13.00;;;;;;;45.37;15.81;99224.94;4782116;29;20047;-79
2022/08/30 10:07:26;;;;;;;17.88;12.80;;;;;;;44.69;16.60;99211.44;4793051;29;20137;-79
2022/08/30 10:10:05;;;;;;;22.08;13.23;;;;;;;44.38;16.65;99216.44;4825194;29;20055;-76
2022/08/30 10:13:01;;;;;;;17.60;13.07;;;;;;;44.29;16.75;99216.03;4802801;29;20108;-79
2022/08/30 10:15:32;;;;;;;19.00;13.18;;;;;;;44.74;16.55;99207.91;4789147;29;20061;-78
2022/08/30 10:18:35;;;;;;;15.55;13.27;;;;;;;45.32;15.85;99213.06;4797033;29;20057;-79
2022/08/30 10:21:12;;;;;;;16.98;12.48;;;;;;;45.31;15.99;99201.25;4791653;29;20051;-80
2022/08/30 10:23:48;;;;;;;16.05;12.38;;;;;;;44.99;16.03;99204.72;4793336;29;20079;-80
2022/08/30 10:26:14;;;;;;;17.70;12.13;;;;;;;44.72;16.10;99216.41;4741658;29;20039;-77
2022/08/30 10:28:49;;;;;;;19.08;12.05;;;;;;;44.30;16.53;99216.88;4779448;29;20157;-77
2022/08/30 10:31:35;;;;;;;19.50;13.23;;;;;;;44.19;16.40;99197.53;4815563;29;20039;-77
2022/08/30 10:34:13;;;;;;;17.88;12.55;;;;;;;44.13;16.86;99209.50;4789477;29;20057;-79
2022/08/30 10:36:46;;;;;;;16.80;12.38;;;;;;;43.32;17.09;99208.56;4780814;29;20075;-80
2022/08/30 10:39:23;;;;;;;20.40;11.85;;;;;;;41.53;17.87;99209.56;4788218;29;20114;-78
2022/08/30 10:42:00;;;;;;;16.08;12.40;;;;;;;40.00;18.99;99216.34;4783472;29;20538;-80
2022/08/30 10:44:36;;;;;;;18.40;12.15;;;;;;;38.79;20.35;99216.81;4794009;29;20051;-78
2022/08/30 10:47:28;;;;;;;21.98;12.85;;;;;;;38.17;21.30;99214.34;4788290;29;20138;-78
2022/08/30 10:50:13;;;;;;;17.30;11.80;;;;;;;37.47;22.08;99216.31;4799415;29;20042;-78
2022/08/30 10:52:49;;;;;;;16.10;10.93;;;;;;;37.12;22.14;99216.34;4795294;29;20054;-78
2022/08/30 10:55:21;;;;;;;14.65;11.45;;;;;;;36.92;23.00;99213.50;4791478;29;20703;-78
2022/08/30 10:57:49;;;;;;;15.68;12.18;;;;;;;36.63;23.61;99208.13;4790131;29;20062;-79
2022/08/30 11:00:25;;;;;;;14.45;11.15;;;;;;;36.46;23.44;99209.47;4788892;29;20584;-79
2022/08/30 11:03:09;;;;;;;13.70;11.30;;;;;;;36.40;23.77;99213.78;4792601;29;20047;-77
2022/08/30 11:05:44;;;;;;;15.60;11.20;;;;;;;36.07;23.94;99208.09;4769794;29;20047;-79
2022/08/30 11:08:35;;;;;;;13.48;10.98;;;;;;;35.81;23.92;99190.53;4791482;29;20265;-78
2022/08/30 11:11:24;;;;;;;16.63;10.75;;;;;;;35.70;24.85;99205.41;4790908;29;20050;-79
2022/08/30 11:13:51;;;;;;;17.00;10.68;;;;;;;35.59;24.76;99209.47;4792254;29;20047;-79
2022/08/30 11:16:18;;;;;;;17.17;10.50;;;;;;;35.38;25.19;99208.34;4790676;29;20043;-80
2022/08/30 11:18:46;;;;;;;20.20;10.90;;;;;;;35.10;25.52;99206.34;4783498;29;20058;-79
2022/08/30 11:21:39;;;;;;;15.23;10.43;;;;;;;34.72;25.77;99206.44;4780729;29;20093;-78
2022/08/30 11:24:13;;;;;;;10.73;9.57;;;;;;;34.38;26.28;99200.50;4786363;29;20058;-79
2022/08/30 11:26:47;;;;;;;19.25;10.60;;;;;;;34.17;26.96;99206.56;4784345;29;20145;-79
2022/08/30 11:29:26;;;;;;;16.48;10.57;;;;;;;33.97;26.95;99205.38;4791065;29;20066;-79
2022/08/30 11:31:54;;;;;;;15.27;10.55;;;;;;;33.80;26.93;99200.09;4785134;29;20043;-80
2022/08/30 11:34:45;;;;;;;20.38;10.60;;;;;;;33.53;27.94;99204.97;4790730;29;20082;-80
2022/08/30 11:37:34;;;;;;;16.27;9.85;;;;;;;33.25;28.58;99202.72;4789808;29;20408;-80
2022/08/30 11:40:05;;;;;;;20.30;9.95;;;;;;;33.07;28.89;99188.66;4784629;29;20051;-77
2022/08/30 11:42:43;;;;;;;14.85;9.70;;;;;;;32.83;29.37;99199.34;4783701;29;20051;-80
2022/08/30 11:45:21;;;;;;;17.30;10.43;;;;;;;32.43;29.88;99203.78;4791144;29;20137;-78